sensor_id;sensor_type;location;lat;lon;timestamp;pressure;altitude;pressure_sealevel;temperature;humidity
69219;BME280;56232;53.384;-2.732;2023-05-21T00:01:13;102133.56;;;15.10;21.58
69219;BME280;56232;53.384;-2.732;2023-05-21T00:03:39;102134.54;;;14.49;21.62
69219;BME280;56232;53.384;-2.732;2023-05-21T00:06:05;102126.30;;;14.42;21.59
69219;BME280;56232;53.384;-2.732;2023-05-21T00:08:30;102124.43;;;14.86;21.70
69219;BME280;56232;53.384;-2.732;2023-05-21T00:10:56;102126.52;;;14.83;21.78
69219;BME280;56232;53.384;-2.732;2023-05-21T00:13:21;102130.45;;;14.20;21.75
69219;BME280;56232;53.384;-2.732;2023-05-21T00:15:47;102128.27;;;14.22;21.66
69219;BME280;56232;53.384;-2.732;2023-05-21T00:18:12;102124.60;;;14.81;21.69
69219;BME280;56232;53.384;-2.732;2023-05-21T00:20:38;102124.46;;;14.22;21.66
69219;BME280;56232;53.384;-2.732;2023-05-21T00:23:03;102126.01;;;14.80;21.59
69219;BME280;56232;53.384;-2.732;2023-05-21T00:25:29;102123.53;;;14.11;21.63
69219;BME280;56232;53.384;-2.732;2023-05-21T00:27:54;102117.87;;;14.72;21.62
69219;BME280;56232;53.384;-2.732;2023-05-21T00:30:20;102111.63;;;14.74;21.66
69219;BME280;56232;53.384;-2.732;2023-05-21T00:32:45;102116.36;;;14.76;21.74
69219;BME280;56232;53.384;-2.732;2023-05-21T00:35:11;102116.34;;;14.72;21.85
69219;BME280;56232;53.384;-2.732;2023-05-21T00:37:36;102115.13;;;14.56;21.92
69219;BME280;56232;53.384;-2.732;2023-05-21T00:40:01;102113.47;;;14.26;22.15
69219;BME280;56232;53.384;-2.732;2023-05-21T00:42:27;102110.99;;;14.19;22.17
69219;BME280;56232;53.384;-2.732;2023-05-21T00:44:52;102113.04;;;13.58;22.16
69219;BME280;56232;53.384;-2.732;2023-05-21T00:47:18;102109.94;;;14.22;22.17
69219;BME280;56232;53.384;-2.732;2023-05-21T00:49:44;102106.21;;;15.29;22.20
69219;BME280;56232;53.384;-2.732;2023-05-21T00:52:09;102104.25;;;14.25;22.04
69219;BME280;56232;53.384;-2.732;2023-05-21T00:54:34;102102.96;;;14.32;21.93
69219;BME280;56232;53.384;-2.732;2023-05-21T00:57:00;102105.03;;;14.37;21.82
69219;BME280;56232;53.384;-2.732;2023-05-21T00:59:25;102104.62;;;14.33;21.78
69219;BME280;56232;53.384;-2.732;2023-05-21T01:01:51;102107.31;;;14.21;21.89
69219;BME280;56232;53.384;-2.732;2023-05-21T01:04:16;102109.71;;;14.15;21.84
69219;BME280;56232;53.384;-2.732;2023-05-21T01:06:42;102106.89;;;14.44;22.13
69219;BME280;56232;53.384;-2.732;2023-05-21T01:09:07;102107.41;;;13.82;22.03
69219;BME280;56232;53.384;-2.732;2023-05-21T01:11:37;102103.57;;;14.24;22.03
69219;BME280;56232;53.384;-2.732;2023-05-21T01:13:58;102101.33;;;14.69;22.14
69219;BME280;56232;53.384;-2.732;2023-05-21T01:16:23;102097.90;;;14.57;22.13
69219;BME280;56232;53.384;-2.732;2023-05-21T01:18:49;102097.31;;;13.44;22.11
69219;BME280;56232;53.384;-2.732;2023-05-21T01:21:14;102095.72;;;14.52;22.17
69219;BME280;56232;53.384;-2.732;2023-05-21T01:23:39;102093.78;;;13.74;22.34
69219;BME280;56232;53.384;-2.732;2023-05-21T01:26:05;102090.43;;;14.12;22.39
69219;BME280;56232;53.384;-2.732;2023-05-21T01:28:31;102087.78;;;13.86;22.62
69219;BME280;56232;53.384;-2.732;2023-05-21T01:31:00;102082.72;;;13.67;22.72
69219;BME280;56232;53.384;-2.732;2023-05-21T01:33:26;102080.92;;;13.02;22.93
69219;BME280;56232;53.384;-2.732;2023-05-21T01:35:51;102084.95;;;13.63;22.72
69219;BME280;56232;53.384;-2.732;2023-05-21T01:38:18;102087.21;;;13.76;22.74
69219;BME280;56232;53.384;-2.732;2023-05-21T01:40:44;102086.15;;;13.21;22.86
69219;BME280;56232;53.384;-2.732;2023-05-21T01:43:06;102087.18;;;13.81;22.89
69219;BME280;56232;53.384;-2.732;2023-05-21T01:45:31;102085.83;;;13.21;22.95
69219;BME280;56232;53.384;-2.732;2023-05-21T01:47:56;102084.87;;;13.81;22.79
69219;BME280;56232;53.384;-2.732;2023-05-21T01:50:22;102082.58;;;13.71;22.95
69219;BME280;56232;53.384;-2.732;2023-05-21T01:52:48;102081.82;;;13.72;22.77
69219;BME280;56232;53.384;-2.732;2023-05-21T01:55:12;102080.40;;;13.79;22.66
69219;BME280;56232;53.384;-2.732;2023-05-21T01:57:38;102081.73;;;13.79;22.65
69219;BME280;56232;53.384;-2.732;2023-05-21T02:00:05;102076.13;;;13.67;22.61
69219;BME280;56232;53.384;-2.732;2023-05-21T02:02:29;102076.15;;;13.49;22.75
69219;BME280;56232;53.384;-2.732;2023-05-21T02:04:54;102081.86;;;13.28;22.73
69219;BME280;56232;53.384;-2.732;2023-05-21T02:07:20;102080.97;;;13.53;22.78
69219;BME280;56232;53.384;-2.732;2023-05-21T02:09:46;102081.77;;;13.21;22.90
69219;BME280;56232;53.384;-2.732;2023-05-21T02:12:11;102081.96;;;12.47;23.14
69219;BME280;56232;53.384;-2.732;2023-05-21T02:14:37;102081.90;;;12.30;23.04
69219;BME280;56232;53.384;-2.732;2023-05-21T02:17:03;102078.79;;;12.62;23.00
69219;BME280;56232;53.384;-2.732;2023-05-21T02:19:28;102073.93;;;12.92;23.30
69219;BME280;56232;53.384;-2.732;2023-05-21T02:21:54;102070.06;;;12.20;23.28
69219;BME280;56232;53.384;-2.732;2023-05-21T02:24:20;102068.86;;;12.13;23.22
69219;BME280;56232;53.384;-2.732;2023-05-21T02:26:45;102068.15;;;12.59;23.19
69219;BME280;56232;53.384;-2.732;2023-05-21T02:29:10;102071.19;;;12.55;23.17
69219;BME280;56232;53.384;-2.732;2023-05-21T02:31:35;102068.71;;;11.97;23.13
69219;BME280;56232;53.384;-2.732;2023-05-21T02:34:01;102066.59;;;12.40;23.11
69219;BME280;56232;53.384;-2.732;2023-05-21T02:36:26;102069.70;;;12.37;23.06
69219;BME280;56232;53.384;-2.732;2023-05-21T02:38:52;102074.27;;;12.32;23.07
69219;BME280;56232;53.384;-2.732;2023-05-21T02:41:17;102071.70;;;12.30;23.05
69219;BME280;56232;53.384;-2.732;2023-05-21T02:43:53;102071.78;;;12.10;23.19
69219;BME280;56232;53.384;-2.732;2023-05-21T02:46:09;102065.79;;;11.79;23.55
69219;BME280;56232;53.384;-2.732;2023-05-21T02:48:34;102063.17;;;11.57;23.69
69219;BME280;56232;53.384;-2.732;2023-05-21T02:51:00;102062.79;;;11.38;24.10
69219;BME280;56232;53.384;-2.732;2023-05-21T02:53:26;102060.04;;;12.37;23.96
69219;BME280;56232;53.384;-2.732;2023-05-21T02:55:51;102059.87;;;11.68;24.16
69219;BME280;56232;53.384;-2.732;2023-05-21T02:58:17;102059.53;;;12.03;24.34
69219;BME280;56232;53.384;-2.732;2023-05-21T03:00:44;102055.39;;;11.92;24.33
69219;BME280;56232;53.384;-2.732;2023-05-21T03:03:08;102054.29;;;11.37;24.33
69219;BME280;56232;53.384;-2.732;2023-05-21T03:05:34;102055.81;;;11.74;24.56
69219;BME280;56232;53.384;-2.732;2023-05-21T03:08:00;102054.21;;;11.72;24.45
69219;BME280;56232;53.384;-2.732;2023-05-21T03:10:25;102052.58;;;10.67;24.12
69219;BME280;56232;53.384;-2.732;2023-05-21T03:12:51;102049.61;;;11.33;23.92
69219;BME280;56232;53.384;-2.732;2023-05-21T03:15:17;102047.37;;;10.82;23.79
69219;BME280;56232;53.384;-2.732;2023-05-21T03:17:43;102044.46;;;11.48;23.70
69219;BME280;56232;53.384;-2.732;2023-05-21T03:20:09;102040.89;;;10.98;23.64
69219;BME280;56232;53.384;-2.732;2023-05-21T03:22:33;102043.24;;;12.12;23.57
69219;BME280;56232;53.384;-2.732;2023-05-21T03:24:59;102043.46;;;11.65;23.51
69219;BME280;56232;53.384;-2.732;2023-05-21T03:27:25;102041.73;;;11.09;23.45
69219;BME280;56232;53.384;-2.732;2023-05-21T03:29:50;102040.52;;;11.67;23.40
69219;BME280;56232;53.384;-2.732;2023-05-21T03:32:16;102038.64;;;11.01;23.40
69219;BME280;56232;53.384;-2.732;2023-05-21T03:34:43;102037.40;;;12.06;23.49
69219;BME280;56232;53.384;-2.732;2023-05-21T03:37:07;102032.36;;;12.05;23.45
69219;BME280;56232;53.384;-2.732;2023-05-21T03:39:33;102027.36;;;12.11;23.39
69219;BME280;56232;53.384;-2.732;2023-05-21T03:41:58;102030.52;;;11.03;23.33
69219;BME280;56232;53.384;-2.732;2023-05-21T03:44:24;102028.26;;;12.16;23.30
69219;BME280;56232;53.384;-2.732;2023-05-21T03:46:50;102026.08;;;11.64;23.28
69219;BME280;56232;53.384;-2.732;2023-05-21T03:49:16;102023.88;;;12.16;23.30
69219;BME280;56232;53.384;-2.732;2023-05-21T03:51:42;102021.78;;;11.06;23.33
69219;BME280;56232;53.384;-2.732;2023-05-21T03:54:07;102026.08;;;11.59;23.55
69219;BME280;56232;53.384;-2.732;2023-05-21T03:56:32;102031.69;;;12.02;23.64
69219;BME280;56232;53.384;-2.732;2023-05-21T03:58:58;102026.88;;;11.60;23.61
69219;BME280;56232;53.384;-2.732;2023-05-21T04:01:23;102023.96;;;12.12;23.62
69219;BME280;56232;53.384;-2.732;2023-05-21T04:03:49;102022.08;;;11.18;23.50
69219;BME280;56232;53.384;-2.732;2023-05-21T04:06:15;102021.37;;;11.91;23.42
69219;BME280;56232;53.384;-2.732;2023-05-21T04:08:40;102027.68;;;11.40;23.44
69219;BME280;56232;53.384;-2.732;2023-05-21T04:11:06;102032.62;;;12.02;23.65
69219;BME280;56232;53.384;-2.732;2023-05-21T04:13:32;102032.51;;;11.59;23.53
69219;BME280;56232;53.384;-2.732;2023-05-21T04:15:57;102034.59;;;11.75;23.47
69219;BME280;56232;53.384;-2.732;2023-05-21T04:18:23;102034.97;;;12.56;23.42
69219;BME280;56232;53.384;-2.732;2023-05-21T04:20:48;102032.13;;;11.98;23.42
69219;BME280;56232;53.384;-2.732;2023-05-21T04:23:14;102026.29;;;12.13;23.40
69219;BME280;56232;53.384;-2.732;2023-05-21T04:25:39;102022.51;;;12.21;23.32
69219;BME280;56232;53.384;-2.732;2023-05-21T04:28:05;102021.89;;;12.31;23.30
69219;BME280;56232;53.384;-2.732;2023-05-21T04:30:31;102018.30;;;12.43;23.32
69219;BME280;56232;53.384;-2.732;2023-05-21T04:32:56;102016.90;;;12.57;23.25
69219;BME280;56232;53.384;-2.732;2023-05-21T04:35:22;102018.33;;;12.67;23.26
69219;BME280;56232;53.384;-2.732;2023-05-21T04:37:47;102017.21;;;12.15;23.49
69219;BME280;56232;53.384;-2.732;2023-05-21T04:40:12;102019.45;;;12.61;23.55
69219;BME280;56232;53.384;-2.732;2023-05-21T04:42:38;102023.66;;;12.63;23.58
69219;BME280;56232;53.384;-2.732;2023-05-21T04:45:04;102022.83;;;12.79;23.46
69219;BME280;56232;53.384;-2.732;2023-05-21T04:47:29;102019.68;;;12.84;23.42
69219;BME280;56232;53.384;-2.732;2023-05-21T04:49:54;102022.26;;;12.90;23.31
69219;BME280;56232;53.384;-2.732;2023-05-21T04:52:19;102026.68;;;12.86;23.75
69219;BME280;56232;53.384;-2.732;2023-05-21T04:54:45;102027.08;;;12.87;23.78
69219;BME280;56232;53.384;-2.732;2023-05-21T04:57:10;102026.72;;;12.90;23.84
69219;BME280;56232;53.384;-2.732;2023-05-21T04:59:36;102026.30;;;13.00;23.73
69219;BME280;56232;53.384;-2.732;2023-05-21T05:02:01;102027.90;;;12.72;23.58
69219;BME280;56232;53.384;-2.732;2023-05-21T05:04:26;102026.51;;;12.92;23.61
69219;BME280;56232;53.384;-2.732;2023-05-21T05:06:52;102025.20;;;13.70;23.46
69219;BME280;56232;53.384;-2.732;2023-05-21T05:09:17;102022.81;;;13.98;23.55
69219;BME280;56232;53.384;-2.732;2023-05-21T05:11:44;102021.92;;;13.72;23.67
69219;BME280;56232;53.384;-2.732;2023-05-21T05:14:08;102024.42;;;13.55;23.59
69219;BME280;56232;53.384;-2.732;2023-05-21T05:16:33;102021.79;;;14.08;23.57
69219;BME280;56232;53.384;-2.732;2023-05-21T05:18:59;102016.91;;;15.12;23.07
69219;BME280;56232;53.384;-2.732;2023-05-21T05:21:24;102017.95;;;15.62;23.51
69219;BME280;56232;53.384;-2.732;2023-05-21T05:23:50;102015.49;;;14.83;24.06
69219;BME280;56232;53.384;-2.732;2023-05-21T05:26:16;102014.84;;;14.98;24.74
69219;BME280;56232;53.384;-2.732;2023-05-21T05:28:41;102017.61;;;15.05;24.90
69219;BME280;56232;53.384;-2.732;2023-05-21T05:31:07;102018.61;;;15.23;24.60
69219;BME280;56232;53.384;-2.732;2023-05-21T05:33:32;102022.64;;;15.55;23.92
69219;BME280;56232;53.384;-2.732;2023-05-21T05:35:58;102028.70;;;15.93;24.13
69219;BME280;56232;53.384;-2.732;2023-05-21T05:38:28;102026.42;;;15.67;24.57
69219;BME280;56232;53.384;-2.732;2023-05-21T05:40:48;102027.13;;;15.51;24.80
69219;BME280;56232;53.384;-2.732;2023-05-21T05:43:14;102030.39;;;16.29;24.89
69219;BME280;56232;53.384;-2.732;2023-05-21T05:45:40;102032.38;;;16.17;24.40
69219;BME280;56232;53.384;-2.732;2023-05-21T05:48:05;102033.55;;;16.57;23.71
69219;BME280;56232;53.384;-2.732;2023-05-21T05:50:31;102044.21;;;16.97;23.30
69219;BME280;56232;53.384;-2.732;2023-05-21T05:52:57;102045.52;;;17.18;22.54
69219;BME280;56232;53.384;-2.732;2023-05-21T05:55:22;102050.39;;;17.76;22.56
69219;BME280;56232;53.384;-2.732;2023-05-21T05:57:48;102050.20;;;18.39;22.41
69219;BME280;56232;53.384;-2.732;2023-05-21T06:00:14;102047.40;;;19.20;21.70
69219;BME280;56232;53.384;-2.732;2023-05-21T06:02:39;102042.69;;;19.96;21.33
69219;BME280;56232;53.384;-2.732;2023-05-21T06:05:05;102044.76;;;21.23;20.56
69219;BME280;56232;53.384;-2.732;2023-05-21T06:07:30;102044.17;;;21.96;20.27
69219;BME280;56232;53.384;-2.732;2023-05-21T06:09:56;102038.74;;;22.17;19.92
69219;BME280;56232;53.384;-2.732;2023-05-21T06:12:21;102039.58;;;22.44;19.47
69219;BME280;56232;53.384;-2.732;2023-05-21T06:14:46;102045.69;;;23.02;19.07
69219;BME280;56232;53.384;-2.732;2023-05-21T06:17:12;102049.48;;;23.11;18.42
69219;BME280;56232;53.384;-2.732;2023-05-21T06:19:38;102053.00;;;23.88;18.21
69219;BME280;56232;53.384;-2.732;2023-05-21T06:22:03;102047.79;;;24.76;17.83
69219;BME280;56232;53.384;-2.732;2023-05-21T06:24:29;102053.06;;;24.88;17.60
69219;BME280;56232;53.384;-2.732;2023-05-21T06:26:54;102050.93;;;26.66;17.40
69219;BME280;56232;53.384;-2.732;2023-05-21T06:29:19;102052.00;;;25.25;17.67
69219;BME280;56232;53.384;-2.732;2023-05-21T06:31:45;102051.85;;;24.25;17.56
69219;BME280;56232;53.384;-2.732;2023-05-21T06:34:10;102059.25;;;23.42;17.91
69219;BME280;56232;53.384;-2.732;2023-05-21T06:36:36;102061.36;;;23.60;17.69
69219;BME280;56232;53.384;-2.732;2023-05-21T06:39:02;102063.85;;;23.19;17.62
69219;BME280;56232;53.384;-2.732;2023-05-21T06:41:26;102063.75;;;22.52;18.23
69219;BME280;56232;53.384;-2.732;2023-05-21T06:43:52;102062.81;;;21.47;18.16
69219;BME280;56232;53.384;-2.732;2023-05-21T06:46:18;102061.48;;;22.08;18.34
69219;BME280;56232;53.384;-2.732;2023-05-21T06:48:44;102062.36;;;21.18;18.36
69219;BME280;56232;53.384;-2.732;2023-05-21T06:51:08;102060.28;;;20.83;18.17
69219;BME280;56232;53.384;-2.732;2023-05-21T06:53:34;102060.67;;;21.92;18.29
69219;BME280;56232;53.384;-2.732;2023-05-21T06:56:00;102060.54;;;22.31;18.25
69219;BME280;56232;53.384;-2.732;2023-05-21T06:58:25;102060.27;;;22.08;18.48
69219;BME280;56232;53.384;-2.732;2023-05-21T07:00:51;102063.22;;;21.49;18.72
69219;BME280;56232;53.384;-2.732;2023-05-21T07:03:16;102062.77;;;22.34;18.73
69219;BME280;56232;53.384;-2.732;2023-05-21T07:05:43;102061.81;;;21.75;18.48
69219;BME280;56232;53.384;-2.732;2023-05-21T07:08:08;102060.92;;;21.58;19.02
69219;BME280;56232;53.384;-2.732;2023-05-21T07:10:33;102060.81;;;21.80;19.42
69219;BME280;56232;53.384;-2.732;2023-05-21T07:12:59;102064.67;;;22.12;19.24
69219;BME280;56232;53.384;-2.732;2023-05-21T07:15:25;102070.07;;;22.17;18.72
69219;BME280;56232;53.384;-2.732;2023-05-21T07:17:50;102068.42;;;22.02;18.55
69219;BME280;56232;53.384;-2.732;2023-05-21T07:20:16;102072.37;;;22.40;18.28
69219;BME280;56232;53.384;-2.732;2023-05-21T07:22:43;102073.18;;;22.74;18.36
69219;BME280;56232;53.384;-2.732;2023-05-21T07:25:08;102072.97;;;22.59;18.41
69219;BME280;56232;53.384;-2.732;2023-05-21T07:27:32;102071.10;;;23.49;18.51
69219;BME280;56232;53.384;-2.732;2023-05-21T07:29:57;102072.27;;;23.75;18.39
69219;BME280;56232;53.384;-2.732;2023-05-21T07:32:23;102070.98;;;23.54;18.15
69219;BME280;56232;53.384;-2.732;2023-05-21T07:34:48;102071.62;;;23.22;18.28
69219;BME280;56232;53.384;-2.732;2023-05-21T07:37:14;102072.99;;;24.09;18.12
69219;BME280;56232;53.384;-2.732;2023-05-21T07:39:40;102076.23;;;23.56;17.91
69219;BME280;56232;53.384;-2.732;2023-05-21T07:42:05;102076.02;;;23.73;17.98
69219;BME280;56232;53.384;-2.732;2023-05-21T07:44:31;102072.69;;;23.46;17.62
69219;BME280;56232;53.384;-2.732;2023-05-21T07:46:56;102072.68;;;24.15;17.92
69219;BME280;56232;53.384;-2.732;2023-05-21T07:49:22;102070.49;;;25.00;17.86
69219;BME280;56232;53.384;-2.732;2023-05-21T07:51:47;102070.15;;;24.14;17.80
69219;BME280;56232;53.384;-2.732;2023-05-21T07:54:13;102068.76;;;23.72;17.78
69219;BME280;56232;53.384;-2.732;2023-05-21T07:56:38;102067.17;;;24.83;17.60
69219;BME280;56232;53.384;-2.732;2023-05-21T07:59:04;102067.49;;;24.58;17.72
69219;BME280;56232;53.384;-2.732;2023-05-21T08:01:29;102068.76;;;24.25;17.74
69219;BME280;56232;53.384;-2.732;2023-05-21T08:03:54;102067.11;;;24.50;17.66
69219;BME280;56232;53.384;-2.732;2023-05-21T08:06:20;102069.91;;;24.42;17.76
69219;BME280;56232;53.384;-2.732;2023-05-21T08:08:46;102069.16;;;24.01;17.65
69219;BME280;56232;53.384;-2.732;2023-05-21T08:11:11;102067.63;;;24.51;17.37
69219;BME280;56232;53.384;-2.732;2023-05-21T08:13:36;102068.59;;;24.88;17.11
69219;BME280;56232;53.384;-2.732;2023-05-21T08:16:02;102071.15;;;23.73;17.02
69219;BME280;56232;53.384;-2.732;2023-05-21T08:18:28;102072.63;;;24.33;17.23
69219;BME280;56232;53.384;-2.732;2023-05-21T08:20:53;102071.36;;;24.48;17.20
69219;BME280;56232;53.384;-2.732;2023-05-21T08:23:18;102071.99;;;23.92;17.12
69219;BME280;56232;53.384;-2.732;2023-05-21T08:25:45;102068.90;;;24.44;16.95
69219;BME280;56232;53.384;-2.732;2023-05-21T08:28:10;102063.93;;;24.15;16.89
69219;BME280;56232;53.384;-2.732;2023-05-21T08:30:35;102059.30;;;24.79;16.80
69219;BME280;56232;53.384;-2.732;2023-05-21T08:33:01;102059.36;;;24.91;16.65
69219;BME280;56232;53.384;-2.732;2023-05-21T08:35:27;102059.30;;;24.51;16.62
69219;BME280;56232;53.384;-2.732;2023-05-21T08:37:52;102056.46;;;25.25;16.53
69219;BME280;56232;53.384;-2.732;2023-05-21T08:40:23;102058.29;;;25.45;16.45
69219;BME280;56232;53.384;-2.732;2023-05-21T08:42:46;102059.27;;;25.01;16.17
69219;BME280;56232;53.384;-2.732;2023-05-21T08:45:11;102061.30;;;25.22;16.34
69219;BME280;56232;53.384;-2.732;2023-05-21T08:47:35;102058.86;;;25.71;16.38
69219;BME280;56232;53.384;-2.732;2023-05-21T08:50:02;102061.71;;;26.24;16.18
69219;BME280;56232;53.384;-2.732;2023-05-21T08:52:26;102061.04;;;25.98;16.01
69219;BME280;56232;53.384;-2.732;2023-05-21T08:54:53;102056.46;;;26.00;15.87
69219;BME280;56232;53.384;-2.732;2023-05-21T08:57:17;102058.05;;;25.93;15.61
69219;BME280;56232;53.384;-2.732;2023-05-21T08:59:44;102059.74;;;27.04;15.61
69219;BME280;56232;53.384;-2.732;2023-05-21T09:02:10;102061.97;;;26.78;15.49
69219;BME280;56232;53.384;-2.732;2023-05-21T09:04:34;102059.07;;;27.60;15.21
69219;BME280;56232;53.384;-2.732;2023-05-21T09:06:59;102059.32;;;27.56;15.07
69219;BME280;56232;53.384;-2.732;2023-05-21T09:09:33;102059.98;;;28.39;14.86
69219;BME280;56232;53.384;-2.732;2023-05-21T09:11:50;102060.71;;;28.82;14.72
69219;BME280;56232;53.384;-2.732;2023-05-21T09:14:16;102056.94;;;28.37;14.50
69219;BME280;56232;53.384;-2.732;2023-05-21T09:16:41;102051.99;;;29.12;14.59
69219;BME280;56232;53.384;-2.732;2023-05-21T09:19:07;102053.39;;;29.84;14.43
69219;BME280;56232;53.384;-2.732;2023-05-21T09:21:32;102056.02;;;30.15;13.99
69219;BME280;56232;53.384;-2.732;2023-05-21T09:23:58;102055.30;;;30.52;13.64
69219;BME280;56232;53.384;-2.732;2023-05-21T09:26:24;102053.46;;;30.97;13.53
69219;BME280;56232;53.384;-2.732;2023-05-21T09:28:51;102050.53;;;31.12;13.56
69219;BME280;56232;53.384;-2.732;2023-05-21T09:31:14;102048.55;;;31.33;13.05
69219;BME280;56232;53.384;-2.732;2023-05-21T09:33:45;102048.30;;;31.84;12.32
69219;BME280;56232;53.384;-2.732;2023-05-21T09:36:06;102041.11;;;31.35;12.56
69219;BME280;56232;53.384;-2.732;2023-05-21T09:38:32;102042.21;;;31.50;12.25
69219;BME280;56232;53.384;-2.732;2023-05-21T09:40:57;102039.07;;;31.84;12.05
69219;BME280;56232;53.384;-2.732;2023-05-21T09:43:22;102034.22;;;31.97;11.94
69219;BME280;56232;53.384;-2.732;2023-05-21T09:45:51;102029.70;;;33.09;11.82
69219;BME280;56232;53.384;-2.732;2023-05-21T09:48:14;102028.98;;;33.00;11.35
69219;BME280;56232;53.384;-2.732;2023-05-21T09:50:39;102029.34;;;33.39;10.84
69219;BME280;56232;53.384;-2.732;2023-05-21T09:53:10;102026.79;;;33.07;10.38
69219;BME280;56232;53.384;-2.732;2023-05-21T09:55:30;102025.69;;;33.75;10.47
69219;BME280;56232;53.384;-2.732;2023-05-21T09:57:57;102025.99;;;34.06;10.44
69219;BME280;56232;53.384;-2.732;2023-05-21T10:00:22;102024.46;;;35.47;11.82
69219;BME280;56232;53.384;-2.732;2023-05-21T10:02:47;102020.79;;;35.99;10.55
69219;BME280;56232;53.384;-2.732;2023-05-21T10:05:13;102022.31;;;35.83;11.20
69219;BME280;56232;53.384;-2.732;2023-05-21T10:07:38;102022.84;;;35.70;10.60
69219;BME280;56232;53.384;-2.732;2023-05-21T10:10:03;102015.96;;;36.11;11.07
69219;BME280;56232;53.384;-2.732;2023-05-21T10:12:29;102015.30;;;33.93;10.60
69219;BME280;56232;53.384;-2.732;2023-05-21T10:14:59;102016.25;;;34.42;11.20
69219;BME280;56232;53.384;-2.732;2023-05-21T10:17:19;102019.59;;;34.28;11.23
69219;BME280;56232;53.384;-2.732;2023-05-21T10:19:46;102017.57;;;34.17;11.22
69219;BME280;56232;53.384;-2.732;2023-05-21T10:22:10;102014.49;;;34.09;11.42
69219;BME280;56232;53.384;-2.732;2023-05-21T10:24:37;102011.15;;;33.48;11.42
69219;BME280;56232;53.384;-2.732;2023-05-21T10:27:01;102007.81;;;32.94;11.80
69219;BME280;56232;53.384;-2.732;2023-05-21T10:29:27;102004.76;;;32.84;12.05
69219;BME280;56232;53.384;-2.732;2023-05-21T10:31:52;102004.55;;;31.88;12.00
69219;BME280;56232;53.384;-2.732;2023-05-21T10:34:18;102000.43;;;33.01;11.62
69219;BME280;56232;53.384;-2.732;2023-05-21T10:36:44;101997.20;;;32.01;11.98
69219;BME280;56232;53.384;-2.732;2023-05-21T10:39:08;101995.61;;;31.38;12.16
69219;BME280;56232;53.384;-2.732;2023-05-21T10:41:41;101993.38;;;30.47;12.47
69219;BME280;56232;53.384;-2.732;2023-05-21T10:44:06;101996.32;;;31.26;12.85
69219;BME280;56232;53.384;-2.732;2023-05-21T10:46:35;101994.86;;;32.57;12.65
69219;BME280;56232;53.384;-2.732;2023-05-21T10:49:00;101990.61;;;32.71;12.30
69219;BME280;56232;53.384;-2.732;2023-05-21T10:51:20;101983.41;;;33.23;11.78
69219;BME280;56232;53.384;-2.732;2023-05-21T10:53:52;101981.72;;;33.68;12.37
69219;BME280;56232;53.384;-2.732;2023-05-21T10:56:14;101978.04;;;33.87;12.08
69219;BME280;56232;53.384;-2.732;2023-05-21T10:58:41;101980.13;;;32.96;12.18
69219;BME280;56232;53.384;-2.732;2023-05-21T11:00:58;101982.39;;;32.57;12.69
69219;BME280;56232;53.384;-2.732;2023-05-21T11:03:24;101982.91;;;31.85;13.21
69219;BME280;56232;53.384;-2.732;2023-05-21T11:05:53;101979.03;;;31.55;13.61
69219;BME280;56232;53.384;-2.732;2023-05-21T11:08:21;101978.57;;;29.34;13.82
69219;BME280;56232;53.384;-2.732;2023-05-21T11:10:40;101973.36;;;29.65;13.98
69219;BME280;56232;53.384;-2.732;2023-05-21T11:13:07;101970.21;;;29.47;14.02
69219;BME280;56232;53.384;-2.732;2023-05-21T11:17:56;101976.08;;;28.27;14.53
69219;BME280;56232;53.384;-2.732;2023-05-21T11:20:22;101972.96;;;27.96;14.74
69219;BME280;56232;53.384;-2.732;2023-05-21T11:22:48;101978.66;;;28.01;16.30
69219;BME280;56232;53.384;-2.732;2023-05-21T11:25:13;101975.46;;;27.75;17.06
69219;BME280;56232;53.384;-2.732;2023-05-21T11:27:40;101971.03;;;28.00;17.20
69219;BME280;56232;53.384;-2.732;2023-05-21T11:30:05;101970.01;;;27.87;16.84
69219;BME280;56232;53.384;-2.732;2023-05-21T11:32:30;101961.58;;;27.73;17.02
69219;BME280;56232;53.384;-2.732;2023-05-21T11:34:59;101961.41;;;28.13;18.54
69219;BME280;56232;53.384;-2.732;2023-05-21T11:37:22;101961.97;;;27.96;19.13
69219;BME280;56232;53.384;-2.732;2023-05-21T11:39:48;101956.81;;;27.70;19.05
69219;BME280;56232;53.384;-2.732;2023-05-21T11:42:13;101959.95;;;27.93;19.82
69219;BME280;56232;53.384;-2.732;2023-05-21T11:44:38;101960.43;;;27.30;19.65
69219;BME280;56232;53.384;-2.732;2023-05-21T11:47:04;101958.73;;;27.15;18.46
69219;BME280;56232;53.384;-2.732;2023-05-21T11:49:29;101957.75;;;26.47;19.18
69219;BME280;56232;53.384;-2.732;2023-05-21T11:51:55;101954.82;;;27.06;19.40
69219;BME280;56232;53.384;-2.732;2023-05-21T11:54:20;101956.32;;;27.55;16.95
69219;BME280;56232;53.384;-2.732;2023-05-21T11:56:46;101951.25;;;26.98;17.79
69219;BME280;56232;53.384;-2.732;2023-05-21T11:59:13;101947.71;;;27.10;18.55
69219;BME280;56232;53.384;-2.732;2023-05-21T12:01:37;101951.66;;;27.95;20.33
69219;BME280;56232;53.384;-2.732;2023-05-21T12:04:03;101948.44;;;28.06;19.14
69219;BME280;56232;53.384;-2.732;2023-05-21T12:06:27;101949.47;;;26.96;20.38
69219;BME280;56232;53.384;-2.732;2023-05-21T12:08:53;101947.99;;;28.34;20.93
69219;BME280;56232;53.384;-2.732;2023-05-21T12:11:19;101945.21;;;27.93;19.34
69219;BME280;56232;53.384;-2.732;2023-05-21T12:13:45;101949.14;;;28.01;19.44
69219;BME280;56232;53.384;-2.732;2023-05-21T12:16:09;101944.51;;;27.93;19.86
69219;BME280;56232;53.384;-2.732;2023-05-21T12:18:35;101945.42;;;27.96;19.43
69219;BME280;56232;53.384;-2.732;2023-05-21T12:21:00;101942.33;;;28.04;18.00
69219;BME280;56232;53.384;-2.732;2023-05-21T12:23:26;101946.25;;;28.16;16.83
69219;BME280;56232;53.384;-2.732;2023-05-21T12:25:51;101942.30;;;27.68;16.72
69219;BME280;56232;53.384;-2.732;2023-05-21T12:28:17;101938.17;;;27.93;16.68
69219;BME280;56232;53.384;-2.732;2023-05-21T12:30:42;101936.83;;;27.28;16.03
69219;BME280;56232;53.384;-2.732;2023-05-21T12:33:08;101931.81;;;28.08;16.13